Flight Track Log - Related Links

Times and Time Zones

All times are in EDT time to prevent confusion due to time zone crossing. See the SWA2975 flight status page for this flight to view local times or setup timezone preferences in your user account.

Time Position Orientation Groundspeed Altitude Reporting Facility
EDT Latitude Longitude Course Direction KTS MPH feet Rate Location/Type
Thu 06:41:34 PM 40.8050 -111.9770 355° North 172 198 4,800  Level FlightAware ADS-B
Thu 06:41:57 PM 40.8250 -111.9790 356° North 192 221 5,500 1,667 Climbing FlightAware ADS-B
Thu 06:42:10 PM 40.8370 -111.9810 353° North 209 241 5,800 1,957 Climbing FlightAware ADS-B
Thu 06:42:43 PM 40.8710 -111.9860 354° North 233 268 7,000 2,526 Climbing FlightAware ADS-B
Thu 06:43:07 PM 40.8960 -111.9890 355° North 234 269 8,200 3,070 Climbing FlightAware ADS-B
Thu 06:43:26 PM 40.9180 -111.9920 354° North 238 274 9,200 2,667 Climbing FlightAware ADS-B
Thu 06:43:43 PM 40.9360 -111.9940 355° North 249 287 9,800 1,714 Climbing FlightAware ADS-B
Thu 06:43:54 PM 40.9500 -111.9960 354° North 268 308 10,000 1,024 Climbing FlightAware ADS-B
Thu 06:44:24 PM 40.9840 -111.9690 31° Northeast 320 368 10,500 1,043 Climbing FlightAware ADS-B
Thu 06:44:40 PM 40.9910 -111.9390 73° East 346 398 10,800 1,882 Climbing FlightAware ADS-B
Thu 06:45:15 PM 40.9970 -111.8620 84° East 365 420 12,100 2,447 Climbing FlightAware ADS-B
Thu 06:45:56 PM 41.0070 -111.7710 82° East 374 430 13,900 2,560 Climbing FlightAware ADS-B
Thu 06:46:30 PM 41.0180 -111.6940 79° East 389 448 15,300 2,430 Climbing FlightAware ADS-B
Thu 06:47:15 PM 41.0270 -111.5870 84° East 402 463 17,100 2,612 Climbing FlightAware ADS-B
Thu 06:47:55 PM 41.0100 -111.4900 103° East 403 464 19,000 2,643 Climbing FlightAware ADS-B
Thu 06:48:39 PM 40.9920 -111.3820 102° East 411 473 20,800 1,533 Climbing FlightAware ADS-B
Thu 06:49:25 PM 40.9770 -111.2820 101° East 416 479 21,300 429 Climbing FlightAware ADS-B
Thu 06:49:49 PM 40.9690 -111.2310 102° East 416 479 21,300  Level FlightAware ADS-B
Thu 06:50:40 PM 40.9530 -111.1220 101° East 416 479 21,300  Level FlightAware ADS-B
Thu 06:51:16 PM 40.9420 -111.0460 101° East 416 479 21,300  Level FlightAware ADS-B
Thu 06:51:52 PM 40.9310 -110.9690 101° East 416 479 21,300 4,063 Level FlightAware ADS-B
Thu 06:52:52 PM 40.7930 -110.7570 131° Southeast 478 550 27,800 5,111 Climbing FlightAware ADS-B
Thu 06:53:13 PM 40.7720 -110.7130 122° Southeast 482 555 28,200 1,545 Climbing FlightAware ADS-B
Thu 06:53:58 PM 40.7060 -110.6020 128° Southeast 484 557 29,500 1,600 Climbing FlightAware ADS-B
Thu 06:54:43 PM 40.6430 -110.4970 128° Southeast 487 560 30,600 1,556 Climbing FlightAware ADS-B
Thu 06:55:19 PM 40.5940 -110.4130 128° Southeast 484 557 31,600 1,683 Climbing FlightAware ADS-B
Thu 06:56:05 PM 40.5320 -110.3090 128° Southeast 481 554 32,900 1,537 Climbing FlightAware ADS-B
Thu 06:56:41 PM 40.4910 -110.2220 122° Southeast 479 551 33,700 1,259 Climbing FlightAware ADS-B
Thu 06:57:26 PM 40.4690 -110.0960 103° East 478 550 34,600 918 Climbing FlightAware ADS-B
Thu 06:58:06 PM 40.4480 -109.9800 103° East 483 556 35,000 393 Climbing FlightAware ADS-B
Thu 06:58:27 PM 40.4370 -109.9160 103° East 483 556 35,000  Level FlightAware ADS-B
Thu 06:59:17 PM 40.4140 -109.7840 103° East 483 556 35,000 733 Level FlightAware ADS-B
Thu 06:59:57 PM 40.3930 -109.6640 103° East 469 540 36,100 1,385 Climbing FlightAware ADS-B
Thu 07:00:22 PM 40.3800 -109.5930 103° East 469 540 36,500 771 Climbing FlightAware ADS-B
Thu 07:01:07 PM 40.3570 -109.4710 104° East 470 541 37,000 341 Climbing FlightAware ADS-B
Thu 07:01:50 PM 40.3350 -109.3480 103° East 468 539 37,000  Level FlightAware ADS-B
Thu 07:02:33 PM 40.3200 -109.2310 100° East 466 536 37,000  Level FlightAware ADS-B
Thu 07:03:12 PM 40.3200 -109.1230 90° East 465 535 37,000  Level FlightAware ADS-B
Thu 07:03:58 PM 40.3200 -108.9920 90° East 466 536 37,000  Level FlightAware ADS-B
Thu 07:04:37 PM 40.3200 -108.8810 90° East 467 537 37,000  Level FlightAware ADS-B
Thu 07:05:28 PM 40.3200 -108.7390 90° East 467 537 37,000  Level FlightAware ADS-B
Thu 07:06:10 PM 40.3200 -108.6190 90° East 465 535 37,000  Level FlightAware ADS-B
Thu 07:07:02 PM 40.3190 -108.4740 90° East 464 534 37,000  Level FlightAware ADS-B
Thu 07:08:03 PM 40.3220 -108.3040 89° East 456 525 37,000  Level FlightAware ADS-B
Thu 07:08:42 PM 40.3390 -108.1970 78° East 454 522 37,000  Level FlightAware ADS-B
Thu 07:09:28 PM 40.3580 -108.0740 79° East 453 521 37,000  Level FlightAware ADS-B
Thu 07:10:06 PM 40.3730 -107.9720 79° East 453 521 37,000  Level FlightAware ADS-B
Thu 07:10:45 PM 40.3880 -107.8690 79° East 453 521 37,000  Level FlightAware ADS-B
Thu 07:11:25 PM 40.4030 -107.7620 80° East 452 520 37,000  Level FlightAware ADS-B
Thu 07:12:08 PM 40.4200 -107.6450 79° East 452 520 37,000  Level FlightAware ADS-B
Thu 07:12:40 PM 40.4330 -107.5600 79° East 453 521 37,000  Level FlightAware ADS-B
Thu 07:13:24 PM 40.4500 -107.4400 79° East 451 519 37,000  Level FlightAware ADS-B
Thu 07:14:05 PM 40.4650 -107.3310 80° East 451 519 37,000  Level FlightAware ADS-B
Thu 07:14:48 PM 40.4820 -107.2150 79° East 449 517 37,000  Level FlightAware ADS-B
Thu 07:15:29 PM 40.4970 -107.1050 80° East 448 516 37,000  Level FlightAware ADS-B
Thu 07:16:13 PM 40.5130 -106.9890 80° East 445 512 37,000  Level FlightAware ADS-B
Thu 07:16:53 PM 40.5280 -106.8830 79° East 444 511 37,000  Level FlightAware ADS-B
Thu 07:17:36 PM 40.5440 -106.7680 80° East 444 511 37,000  Level FlightAware ADS-B
Thu 07:18:18 PM 40.5590 -106.6580 80° East 447 514 37,000  Level FlightAware ADS-B
Thu 07:19:01 PM 40.5750 -106.5410 80° East 449 517 37,000  Level FlightAware ADS-B
Thu 07:19:41 PM 40.5890 -106.4350 80° East 448 516 37,000  Level FlightAware ADS-B
Thu 07:20:26 PM 40.6050 -106.3140 80° East 448 516 37,000  Level FlightAware ADS-B
Thu 07:21:06 PM 40.6190 -106.2050 80° East 448 516 37,000  Level FlightAware ADS-B
Thu 07:21:50 PM 40.6350 -106.0870 80° East 448 516 37,000  Level FlightAware ADS-B
Thu 07:22:30 PM 40.6490 -105.9810 80° East 448 516 37,000  Level FlightAware ADS-B
Thu 07:23:05 PM 40.6610 -105.8870 80° East 449 517 37,000  Level FlightAware ADS-B
Thu 07:23:55 PM 40.6780 -105.7530 80° East 448 516 37,000  Level FlightAware ADS-B
Thu 07:24:31 PM 40.6900 -105.6540 81° East 452 520 37,000  Level FlightAware ADS-B
Thu 07:25:11 PM 40.7040 -105.5440 80° East 453 521 37,000  Level FlightAware ADS-B
Thu 07:25:55 PM 40.7190 -105.4260 80° East 452 520 37,000  Level FlightAware ADS-B
Thu 07:26:27 PM 40.7300 -105.3400 80° East 452 520 37,000  Level FlightAware ADS-B
Thu 07:27:07 PM 40.7430 -105.2300 81° East 452 520 37,000  Level FlightAware ADS-B
Thu 07:27:51 PM 40.7580 -105.1090 81° East 452 520 37,000  Level FlightAware ADS-B
Thu 07:28:35 PM 40.7720 -104.9920 81° East 450 518 37,000  Level FlightAware ADS-B
Thu 07:29:15 PM 40.7850 -104.8840 81° East 449 517 37,000  Level FlightAware ADS-B
Thu 07:29:59 PM 40.7990 -104.7640 81° East 450 518 37,000  Level FlightAware ADS-B
Thu 07:30:39 PM 40.8120 -104.6560 81° East 452 520 37,000  Level FlightAware ADS-B
Thu 07:31:19 PM 40.8250 -104.5470 81° East 453 521 37,000  Level FlightAware ADS-B
Thu 07:31:55 PM 40.8360 -104.4480 82° East 453 521 37,000  Level FlightAware ADS-B
Thu 07:32:39 PM 40.8500 -104.3290 81° East 447 514 37,000  Level FlightAware ADS-B
Thu 07:33:17 PM 40.8620 -104.2260 81° East 446 513 37,000  Level FlightAware ADS-B
Thu 07:33:56 PM 40.8740 -104.1230 81° East 444 511 37,000  Level FlightAware ADS-B
Thu 07:34:37 PM 40.8860 -104.0130 82° East 444 511 37,000  Level FlightAware ADS-B
Thu 07:35:16 PM 40.8970 -103.9100 82° East 442 509 37,000  Level FlightAware ADS-B
Thu 07:36:00 PM 40.9100 -103.7930 82° East 440 506 37,000  Level FlightAware ADS-B
Thu 07:36:45 PM 40.9240 -103.6730 81° East 438 504 37,000  Level FlightAware ADS-B
Thu 07:37:23 PM 40.9350 -103.5720 82° East 438 504 37,000  Level FlightAware ADS-B
Thu 07:38:05 PM 40.9460 -103.4610 82° East 438 504 37,000  Level FlightAware ADS-B
Thu 07:38:35 PM 40.9550 -103.3830 81° East 438 504 37,000  Level FlightAware ADS-B
Thu 07:39:39 PM 40.9710 -103.2270 82° East 439 505 37,000  Level FlightAware ADS-B
Thu 07:40:24 PM 40.9850 -103.0910 82° East 439 505 37,000  Level FlightAware ADS-B
Thu 07:41:25 PM 41.0020 -102.9280 82° East 441 507 37,000  Level FlightAware ADS-B
Thu 07:42:05 PM 41.0120 -102.8270 82° East 441 507 37,000  Level FlightAware ADS-B
Thu 07:42:49 PM 41.0240 -102.7080 82° East 442 509 37,000  Level FlightAware ADS-B
Thu 07:43:30 PM 41.0360 -102.5940 82° East 441 507 37,000  Level FlightAware ADS-B
Thu 07:44:14 PM 41.0470 -102.4770 83° East 440 506 37,000  Level FlightAware ADS-B
Thu 07:44:53 PM 41.0570 -102.3740 83° East 439 505 37,000  Level FlightAware ADS-B
Thu 07:45:30 PM 41.0660 -102.2790 83° East 436 502 37,000  Level FlightAware ADS-B
Thu 07:46:06 PM 41.0760 -102.1800 82° East 435 501 37,000  Level FlightAware ADS-B
Thu 07:47:19 PM 41.0730 -101.9850 91° East 450 518 37,000  Level FlightAware ADS-B
Thu 07:48:04 PM 41.0600 -101.8760 99° East 449 517 37,000  Level FlightAware ADS-B
Thu 07:48:52 PM 41.0470 -101.7650 99° East 449 517 37,000  Level FlightAware ADS-B
Thu 07:49:28 PM 41.0370 -101.6820 99° East 449 517 37,000  Level FlightAware ADS-B
Thu 07:50:16 PM 41.0230 -101.5710 99° East 449 517 37,000  Level FlightAware ADS-B
Thu 07:50:52 PM 41.0130 -101.4880 99° East 449 517 37,000  Level FlightAware ADS-B
Thu 07:51:40 PM 41.0000 -101.3770 99° East 449 517 37,000  Level FlightAware ADS-B
Thu 07:52:16 PM 40.9900 -101.2940 99° East 449 517 37,000  Level FlightAware ADS-B
Thu 07:52:52 PM 40.9800 -101.2110 99° East 449 517 37,000  Level FlightAware ADS-B
Thu 07:53:40 PM 40.9670 -101.1000 99° East 449 517 37,000  Level FlightAware ADS-B
Thu 07:54:16 PM 40.9570 -101.0170 99° East 449 517 37,000  Level FlightAware ADS-B
Thu 07:54:52 PM 40.9470 -100.9330 99° East 449 517 37,000  Level FlightAware ADS-B
Thu 07:55:40 PM 40.9340 -100.8230 99° East 449 517 37,000  Level FlightAware ADS-B
Thu 07:56:17 PM 40.9240 -100.7370 99° East 449 517 37,000  Level FlightAware ADS-B
Thu 07:56:54 PM 40.9130 -100.6520 100° East 449 517 37,000  Level FlightAware ADS-B
Thu 07:57:30 PM 41.0711 -100.3522 100° East 438 504 37,000  Level Minneapolis Center
Thu 07:58:00 PM 41.0778 -100.2628 84° East 437 503 37,000  Level Denver Center
Thu 07:59:02 PM 41.0906 -100.1103 84° East 435 501 37,000  Level Denver Center
Thu 08:00:03 PM 41.1042 -99.9578 83° East 436 502 37,000  Level Denver Center
Thu 08:01:04 PM 41.1200 -99.7772 83° East 440 506 37,000  Level Denver Center
Thu 08:02:06 PM 41.1575 -99.6364 70° East 427 491 37,000  Level Denver Center
Thu 08:03:07 PM 41.2294 -99.5031 54° Northeast 402 463 37,000  Level Denver Center
Thu 08:04:08 PM 41.2919 -99.3900 54° Northeast 398 458 37,000  Level Denver Center
Thu 08:05:09 PM 41.3569 -99.2694 54° Northeast 398 458 37,000  Level Denver Center
Thu 08:06:11 PM 41.4239 -99.1522 53° Northeast 395 455 37,000  Level Denver Center
Thu 08:07:12 PM 41.4908 -99.0342 53° Northeast 395 455 37,000  Level Denver Center
Thu 08:12:41 PM 41.5720 -98.3340 53° Northeast 462 532 37,000  Level FlightAware ADS-B
Thu 08:13:20 PM 41.5180 -98.2520 131° Southeast 462 532 37,000  Level FlightAware ADS-B
Thu 08:14:05 PM 41.4550 -98.1580 132° Southeast 462 532 37,000  Level FlightAware ADS-B
Thu 08:14:45 PM 41.3960 -98.0690 131° Southeast 463 533 37,000  Level FlightAware ADS-B
Thu 08:15:29 PM 41.3340 -97.9770 132° Southeast 464 534 37,000  Level FlightAware ADS-B
Thu 08:16:11 PM 41.2840 -97.9000 131° Southeast 464 534 37,000  Level FlightAware ADS-B
Thu 08:16:41 PM 41.3090 -97.7940 73° East 422 486 37,000  Level FlightAware ADS-B
Thu 08:17:23 PM 41.3110 -97.6970 88° East 422 486 37,000  Level FlightAware ADS-B
Thu 08:18:11 PM 41.3120 -97.5620 89° East 420 483 37,000  Level FlightAware ADS-B
Thu 08:18:53 PM 41.3140 -97.4660 88° East 419 482 37,000  Level FlightAware ADS-B
Thu 08:19:42 PM 41.3150 -97.3290 89° East 416 479 37,000  Level FlightAware ADS-B
Thu 08:20:21 PM 41.3170 -97.2290 88° East 414 476 37,000  Level FlightAware ADS-B
Thu 08:21:05 PM 41.3180 -97.1160 89° East 414 476 37,000  Level FlightAware ADS-B
Thu 08:21:45 PM 41.3190 -97.0160 89° East 413 475 37,000  Level FlightAware ADS-B
Thu 08:22:29 PM 41.3200 -96.9030 89° East 413 475 37,000  Level FlightAware ADS-B
Thu 08:23:11 PM 41.3210 -96.7970 89° East 413 475 37,000  Level FlightAware ADS-B
Thu 08:23:43 PM 41.3220 -96.7170 89° East 413 475 37,000  Level FlightAware ADS-B
Thu 08:24:27 PM 41.3230 -96.6070 89° East 412 474 37,000  Level FlightAware ADS-B
Thu 08:25:07 PM 41.3240 -96.5050 89° East 412 474 37,000  Level FlightAware ADS-B
Thu 08:25:43 PM 41.3240 -96.4140 90° East 411 473 37,000  Level FlightAware ADS-B
Thu 08:26:23 PM 41.3250 -96.3130 89° East 411 473 37,000  Level FlightAware ADS-B
Thu 08:27:07 PM 41.3250 -96.2020 90° East 411 473 37,000  Level FlightAware ADS-B
Thu 08:27:52 PM 41.3250 -96.0930 90° East 411 473 37,000  Level FlightAware ADS-B
Thu 08:28:31 PM 41.3260 -95.9900 89° East 414 476 37,000  Level FlightAware ADS-B
Thu 08:29:23 PM 41.3260 -95.8580 90° East 418 481 37,000  Level FlightAware ADS-B
Thu 08:30:11 PM 41.3250 -95.7320 91° East 422 486 37,000  Level FlightAware ADS-B
Thu 08:30:51 PM 41.3070 -95.6320 103° East 439 505 37,000  Level FlightAware ADS-B
Thu 08:31:35 PM 41.2580 -95.5290 122° Southeast 459 528 37,000  Level FlightAware ADS-B
Thu 08:32:17 PM 41.1920 -95.4500 138° Southeast 466 536 37,000  Level FlightAware ADS-B
Thu 08:32:57 PM 41.1260 -95.3760 140° Southeast 465 535 37,000  Level FlightAware ADS-B
Thu 08:33:41 PM 41.0530 -95.2960 140° Southeast 463 533 37,000  Level FlightAware ADS-B
Thu 08:34:19 PM 40.9900 -95.2280 141° Southeast 463 533 37,000  Level FlightAware ADS-B
Thu 08:35:03 PM 40.9180 -95.1490 140° Southeast 459 528 37,000  Level FlightAware ADS-B
Thu 08:35:17 PM 40.9000 -95.1180 128° Southeast 439 505 37,000  Level FlightAware ADS-B
Thu 08:35:33 PM 40.8910 -95.0800 107° East 424 488 37,000  Level FlightAware ADS-B
Thu 08:35:57 PM 40.8900 -95.0180 91° East 412 474 37,000  Level FlightAware ADS-B
Thu 08:37:05 PM 40.9030 -94.8450 84° East 418 481 37,000  Level FlightAware ADS-B
Thu 08:37:44 PM 40.9100 -94.7610 84° East 418 481 37,000  Level FlightAware ADS-B
Thu 08:38:20 PM 40.9160 -94.6830 84° East 418 481 37,000  Level FlightAware ADS-B
Thu 08:39:06 PM 40.9240 -94.5830 84° East 418 481 37,000  Level FlightAware ADS-B
Thu 08:39:42 PM 40.9300 -94.5050 84° East 418 481 37,000  Level FlightAware ADS-B
Thu 08:40:20 PM 40.9370 -94.3520 86° East 420 483 37,000  Level FlightAware ADS-B
Thu 08:41:06 PM 40.9450 -94.2430 84° East 422 486 37,000  Level FlightAware ADS-B
Thu 08:41:50 PM 40.9530 -94.1180 85° East 426 490 37,000  Level FlightAware ADS-B
Thu 08:42:32 PM 40.9600 -94.0120 85° East 428 493 37,000  Level FlightAware ADS-B
Thu 08:43:15 PM 40.9660 -93.9140 85° East 428 493 37,000  Level FlightAware ADS-B
Thu 08:43:51 PM 40.9710 -93.8350 85° East 428 493 37,000  Level FlightAware ADS-B
Thu 08:44:33 PM 40.9800 -93.6940 85° East 429 494 37,000  Level FlightAware ADS-B
Thu 08:45:13 PM 40.9860 -93.5870 86° East 430 495 37,000  Level FlightAware ADS-B
Thu 08:45:51 PM 40.9920 -93.4870 85° East 431 496 37,000 -366 Level FlightAware ADS-B
Thu 08:46:35 PM 40.9990 -93.3720 85° East 435 501 36,500 -732 Descending FlightAware ADS-B
Thu 08:47:13 PM 41.0050 -93.2720 85° East 439 505 36,000 -868 Descending FlightAware ADS-B
Thu 08:47:51 PM 41.0110 -93.1710 85° East 444 511 35,400 -1,000 Descending FlightAware ADS-B
Thu 08:48:31 PM 41.0170 -93.0620 86° East 446 513 34,700 -977 Descending FlightAware ADS-B
Thu 08:49:17 PM 41.0240 -92.9360 86° East 444 511 34,000 -933 Descending FlightAware ADS-B
Thu 08:50:01 PM 41.0300 -92.8180 86° East 444 511 33,300 -988 Descending FlightAware ADS-B
Thu 08:50:42 PM 41.0360 -92.7080 86° East 449 517 32,600 -1,000 Descending FlightAware ADS-B
Thu 08:51:25 PM 41.0420 -92.5890 86° East 444 511 31,900 -904 Descending FlightAware ADS-B
Thu 08:51:55 PM 41.0470 -92.5060 85° East 443 510 31,500 -947 Descending FlightAware ADS-B
Thu 08:52:41 PM 41.0530 -92.3830 86° East 448 516 30,700 -977 Descending FlightAware ADS-B
Thu 08:53:21 PM 41.0590 -92.2720 86° East 442 509 30,100 -935 Descending FlightAware ADS-B
Thu 08:53:58 PM 41.0640 -92.1720 86° East 450 518 29,500 -825 Descending FlightAware ADS-B
Thu 08:54:41 PM 41.0690 -92.0530 87° East 459 528 29,000 -361 Descending FlightAware ADS-B
Thu 08:55:21 PM 41.0750 -91.9400 86° East 459 528 29,000  Level FlightAware ADS-B
Thu 08:56:03 PM 41.0800 -91.8230 87° East 459 528 29,000  Level FlightAware ADS-B
Thu 08:56:45 PM 41.0850 -91.7060 87° East 457 526 29,000  Level FlightAware ADS-B
Thu 08:57:28 PM 41.0900 -91.5850 87° East 455 524 29,000 -143 Level FlightAware ADS-B
Thu 08:58:09 PM 41.0950 -91.4710 87° East 458 527 28,800 -623 Descending FlightAware ADS-B
Thu 08:58:45 PM 41.1000 -91.3710 86° East 463 533 28,200 -935 Descending FlightAware ADS-B
Thu 08:59:26 PM 41.1040 -91.2570 87° East 468 539 27,600 -929 Descending FlightAware ADS-B
Thu 09:00:09 PM 41.1090 -91.1350 87° East 469 540 26,900 -987 Descending FlightAware ADS-B
Thu 09:00:45 PM 41.1130 -91.0360 87° East 468 539 26,300 -1,135 Descending FlightAware ADS-B
Thu 09:01:23 PM 41.1170 -90.9180 87° East 451 519 25,500 -1,171 Descending FlightAware ADS-B
Thu 09:02:07 PM 41.1220 -90.8020 87° East 414 476 24,700 -1,023 Descending FlightAware ADS-B
Thu 09:02:51 PM 41.1260 -90.6950 87° East 392 451 24,000 -500 Descending FlightAware ADS-B
Thu 09:03:31 PM 41.1290 -90.6010 88° East 397 457 24,000  Level FlightAware ADS-B
Thu 09:04:13 PM 41.1320 -90.4970 88° East 399 459 24,000 -429 Level FlightAware ADS-B
Thu 09:04:55 PM 41.1360 -90.3950 87° East 397 457 23,400 -1,139 Descending FlightAware ADS-B
Thu 09:05:32 PM 41.1390 -90.3060 87° East 390 449 22,500 -1,769 Descending FlightAware ADS-B
Thu 09:06:13 PM 41.1420 -90.2100 88° East 381 438 21,100 -2,096 Descending FlightAware ADS-B
Thu 09:06:55 PM 41.1450 -90.1120 88° East 372 428 19,600 -2,049 Descending FlightAware ADS-B
Thu 09:07:35 PM 41.1480 -90.0240 87° East 365 420 18,300 -2,053 Descending FlightAware ADS-B
Thu 09:08:11 PM 41.1500 -89.9440 88° East 359 413 17,000 -2,250 Descending FlightAware ADS-B
Thu 09:08:55 PM 41.1530 -89.8460 88° East 356 410 15,300 -1,500 Descending FlightAware ADS-B
Thu 09:09:35 PM 41.1550 -89.7580 88° East 350 403 14,900 -286 Descending FlightAware ADS-B
Thu 09:10:19 PM 41.1580 -89.6650 88° East 348 400 14,900 -357 Level FlightAware ADS-B
Thu 09:10:59 PM 41.1740 -89.5820 76° East 352 405 14,400 -857 Descending FlightAware ADS-B
Thu 09:11:43 PM 41.2010 -89.4960 67° East 348 400 13,700 -1,000 Descending FlightAware ADS-B
Thu 09:12:23 PM 41.2250 -89.4150 68° East 346 398 13,000 -1,084 Descending FlightAware ADS-B
Thu 09:13:06 PM 41.2500 -89.3300 69° East 343 395 12,200 -1,000 Descending FlightAware ADS-B
Thu 09:13:47 PM 41.2740 -89.2510 68° East 341 392 11,600 -940 Descending FlightAware ADS-B
Thu 09:14:29 PM 41.2980 -89.1700 68° East 335 386 10,900 -488 Descending FlightAware ADS-B
Thu 09:15:13 PM 41.3210 -89.0910 69° East 295 339 10,900  Level FlightAware ADS-B
Thu 09:15:55 PM 41.3420 -89.0220 68° East 284 327 10,900 -439 Level FlightAware ADS-B
Thu 09:16:35 PM 41.3610 -88.9560 69° East 288 331 10,300 -882 Descending FlightAware ADS-B
Thu 09:17:03 PM 41.3740 -88.9100 69° East 287 330 9,900 -964 Descending FlightAware ADS-B
Thu 09:17:31 PM 41.3880 -88.8640 68° East 286 329 9,400 -1,071 Descending FlightAware ADS-B
Thu 09:17:59 PM 41.4020 -88.8180 68° East 285 328 8,900 -964 Descending FlightAware ADS-B
Thu 09:18:27 PM 41.4150 -88.7720 69° East 283 326 8,500 -982 Descending FlightAware ADS-B
Thu 09:18:54 PM 41.4280 -88.7280 68° East 281 323 8,000 -1,071 Descending FlightAware ADS-B
Thu 09:19:23 PM 41.4410 -88.6820 69° East 286 329 7,500 -906 Descending FlightAware ADS-B
Thu 09:19:47 PM 41.4530 -88.6420 68° East 288 331 7,200 -923 Descending FlightAware ADS-B
Thu 09:20:15 PM 41.4660 -88.5950 70° East 286 329 6,700 -1,050 Descending FlightAware ADS-B
Thu 09:20:27 PM 41.4710 -88.5750 72° East 286 329 6,500 -1,050 Descending FlightAware ADS-B
Thu 09:20:55 PM 41.4840 -88.5300 69° East 284 327 6,000 -900 Descending FlightAware ADS-B
Thu 09:21:07 PM 41.4900 -88.5100 68° East 283 326 5,900 -167 Descending FlightAware ADS-B
Thu 09:21:31 PM 41.5010 -88.4710 69° East 281 323 5,900 -231 Level FlightAware ADS-B
Thu 09:21:59 PM 41.5120 -88.4240 73° East 283 326 5,700 -600 Descending FlightAware ADS-B
Thu 09:22:11 PM 41.5150 -88.4070 77° East 284 327 5,500 -1,135 Descending FlightAware ADS-B
Thu 09:22:36 PM 41.5220 -88.3600 79° East 282 325 5,000 -643 Descending FlightAware ADS-B
Thu 09:23:07 PM 41.5310 -88.3090 77° East 279 321 4,900 -102 Descending FlightAware ADS-B
Thu 09:23:35 PM 41.5390 -88.2620 77° East 278 320 4,900  Level FlightAware ADS-B
Thu 09:23:58 PM 41.5440 -88.2220 81° East 277 319 4,900  Level FlightAware ADS-B
Thu 09:24:11 PM 41.5450 -88.2050 86° East 277 319 4,900  Level FlightAware ADS-B
Thu 09:24:37 PM 41.5460 -88.1570 88° East 278 320 4,900  Level FlightAware ADS-B
Thu 09:25:07 PM 41.5480 -88.1040 87° East 279 321 4,900  Level FlightAware ADS-B
Thu 09:25:23 PM 41.5490 -88.0760 87° East 279 321 4,900  Level FlightAware ADS-B
Thu 09:25:51 PM 41.5500 -88.0300 88° East 279 321 4,900  Level FlightAware ADS-B
Thu 09:26:19 PM 41.5520 -87.9820 87° East 280 322 4,900  Level FlightAware ADS-B
Thu 09:26:47 PM 41.5540 -87.9320 87° East 280 322 4,900  Level FlightAware ADS-B
Thu 09:26:59 PM 41.5550 -87.9110 86° East 280 322 4,900 -600 Level FlightAware ADS-B
Thu 09:27:27 PM 41.5560 -87.8650 88° East 277 319 4,500 -857 Descending FlightAware ADS-B
Thu 09:27:55 PM 41.5580 -87.8160 87° East 275 316 4,100 -643 Descending FlightAware ADS-B
Thu 09:28:23 PM 41.5600 -87.7690 87° East 272 313 3,900 -250 Descending FlightAware ADS-B
Thu 09:28:43 PM 41.5610 -87.7360 88° East 270 311 3,900 -333 Level FlightAware ADS-B
Thu 09:28:59 PM 41.5670 -87.7110 72° East 269 310 3,700 -933 Descending FlightAware ADS-B
Thu 09:29:28 PM 41.5910 -87.6740 49° Northeast 272 313 3,200 -923 Descending FlightAware ADS-B
Thu 09:29:38 PM 41.6000 -87.6610 47° Northeast 273 314 3,100 -462 Descending FlightAware ADS-B
Thu 09:30:07 PM 41.6240 -87.6280 46° Northeast 256 295 2,900 -267 Descending FlightAware ADS-B
Thu 09:30:23 PM 41.6380 -87.6130 39° Northeast 239 275 2,900  Level FlightAware ADS-B
Thu 09:30:31 PM 41.6470 -87.6100 14° North 228 262 2,900 -900 Level FlightAware ADS-B
Thu 09:30:43 PM 41.6580 -87.6130 348° North 223 257 2,600 -732 Descending FlightAware ADS-B
Thu 09:31:12 PM 41.6840 -87.6320 331° Northwest 221 254 2,400 -214 Descending FlightAware ADS-B
Thu 09:31:39 PM 41.7080 -87.6510 329° Northwest 219 252 2,400 -109 Level FlightAware ADS-B
Thu 09:32:07 PM 41.7300 -87.6720 325° Northwest 198 228 2,300 -143 Descending FlightAware ADS-B
Thu 09:32:21 PM 41.7430 -87.6770 344° North 213 245 2,300  Level FlightAware ADS-B
Thu 09:32:49 PM 41.7690 -87.6770 360° North 186 214 2,300 -429 Level FlightAware ADS-B
Thu 09:33:17 PM 41.7910 -87.6800 354° North 172 198 1,900 -724 Descending FlightAware ADS-B
Thu 09:33:47 PM 41.8130 -87.6910 340° North 157 181 1,600 -600 Descending FlightAware ADS-B
Thu 09:34:07 PM 41.8180 -87.7080 292° West 142 163 1,400 -750 Descending FlightAware ADS-B
Thu 09:34:27 PM 41.8110 -87.7200 232° Southwest 130 150 1,100 -706 Descending FlightAware ADS-B
Thu 09:34:58 PM 41.8000 -87.7333 232° Southwest 130 150 800 -87 Descending Chicago TRACON
Thu 09:35:36 PM 41.7786 -87.7542 216° Southwest 162 186 1,000 316 Climbing Chicago Center

Login

Don't have an account? Register now (free) for customized features, flight alerts, and more!